Time;durP1;ratioP1;P1;durP2;ratioP2;P2;SDS_P1;SDS_P2;PMS_P1;PMS_P2;Temp;Humidity;BMP_temperature;BMP_pressure;BME280_temperature;BME280_humidity;BME280_pressure;Samples;Min_cycle;Max_cycle;Signal;HPM_P1;HPM_P2
2023/12/26 00:01:49;;;;;;;20.58;12.32;;;;;;;3.28;87.70;99044.13;5094918;28;20398;-48
2023/12/26 00:04:15;;;;;;;19.58;14.30;;;;;;;2.98;88.08;99053.81;5094978;28;20027;-48
2023/12/26 00:06:44;;;;;;;17.50;12.02;;;;;;;2.84;88.88;99053.44;5094971;28;20026;-48
2023/12/26 00:09:12;;;;;;;24.83;12.20;;;;;;;3.11;91.05;99053.47;5094872;28;20498;-48
2023/12/26 00:11:45;;;;;;;16.90;13.75;;;;;;;3.45;91.08;99049.50;5094881;28;20059;-48
2023/12/26 00:14:11;;;;;;;17.20;12.13;;;;;;;3.65;90.53;99056.19;5093577;28;20023;-48
2023/12/26 00:16:39;;;;;;;17.95;11.27;;;;;;;4.15;91.52;99053.09;5093466;28;20501;-48
2023/12/26 00:19:05;;;;;;;15.45;9.50;;;;;;;4.60;90.17;99048.69;5094766;28;20556;-48
2023/12/26 00:21:30;;;;;;;15.18;11.65;;;;;;;4.80;88.14;99047.50;5094700;28;20114;-48
2023/12/26 00:23:56;;;;;;;14.70;9.93;;;;;;;4.79;87.15;99051.09;5094304;28;20043;-48
2023/12/26 00:26:22;;;;;;;18.88;10.40;;;;;;;4.84;86.50;99052.41;5094614;28;20028;-48
2023/12/26 00:28:48;;;;;;;15.80;11.00;;;;;;;5.19;85.57;99054.88;5093232;28;20028;-48
2023/12/26 00:31:13;;;;;;;18.67;9.85;;;;;;;5.64;84.58;99049.47;5094417;28;20031;-48
2023/12/26 00:33:39;;;;;;;23.73;16.60;;;;;;;6.02;83.02;99049.84;5094424;28;20028;-49
2023/12/26 00:36:05;;;;;;;17.00;10.35;;;;;;;6.26;81.93;99044.69;5094447;28;20055;-49
2023/12/26 00:38:31;;;;;;;16.65;10.05;;;;;;;6.20;80.11;99046.13;5094431;28;20413;-48
2023/12/26 00:40:56;;;;;;;18.13;13.35;;;;;;;6.11;79.33;99044.50;5094181;28;20034;-48
2023/12/26 00:43:22;;;;;;;14.00;9.93;;;;;;;6.03;78.59;99051.50;5094346;28;20039;-48
2023/12/26 00:45:48;;;;;;;15.27;10.65;;;;;;;5.90;77.74;99047.56;5092897;28;20027;-48
2023/12/26 00:48:13;;;;;;;28.05;21.45;;;;;;;5.70;76.91;99052.25;5094160;28;20047;-48
2023/12/26 00:50:41;;;;;;;17.67;14.30;;;;;;;5.34;75.38;99060.28;5075958;28;20169;-48
2023/12/26 00:53:10;;;;;;;16.30;11.15;;;;;;;4.87;74.06;99057.28;5092785;28;20028;-48
2023/12/26 00:55:36;;;;;;;15.40;10.18;;;;;;;4.23;74.63;99054.13;5092688;28;20035;-48
2023/12/26 00:58:02;;;;;;;15.98;9.80;;;;;;;3.63;76.73;99052.91;5094072;28;20028;-48
2023/12/26 01:00:28;;;;;;;14.27;9.65;;;;;;;3.11;79.30;99057.84;5092555;28;20100;-48
2023/12/26 01:02:53;;;;;;;16.73;9.73;;;;;;;2.76;82.00;99056.75;5093871;28;20059;-48
2023/12/26 01:05:20;;;;;;;13.70;8.20;;;;;;;2.47;83.07;99060.19;5094102;28;20077;-48
2023/12/26 01:07:45;;;;;;;16.95;10.50;;;;;;;2.19;84.68;99064.47;5094096;28;20424;-48
2023/12/26 01:10:11;;;;;;;34.72;22.88;;;;;;;2.00;86.14;99068.69;5093816;28;20043;-48
2023/12/26 01:12:37;;;;;;;18.92;11.35;;;;;;;2.02;88.14;99070.34;5093706;28;20066;-48
2023/12/26 01:15:03;;;;;;;14.27;9.52;;;;;;;2.07;88.80;99066.38;5093592;28;20032;-48
2023/12/26 01:17:29;;;;;;;15.75;9.63;;;;;;;2.33;89.84;99065.81;5092332;28;20023;-48
2023/12/26 01:19:54;;;;;;;15.18;10.15;;;;;;;2.44;88.79;99059.69;5092193;28;20547;-48
2023/12/26 01:22:20;;;;;;;15.02;10.05;;;;;;;2.27;88.38;99064.59;5092208;28;20032;-48
2023/12/26 01:24:47;;;;;;;15.50;11.18;;;;;;;2.13;88.55;99070.19;5093136;28;20052;-48
2023/12/26 01:27:13;;;;;;;15.95;11.55;;;;;;;2.01;89.14;99072.09;5093481;28;20447;-48
2023/12/26 01:29:39;;;;;;;17.63;10.77;;;;;;;1.89;89.45;99073.19;5093406;28;20020;-48
2023/12/26 01:32:05;;;;;;;15.77;10.50;;;;;;;1.74;89.83;99065.00;5093325;28;20570;-48
2023/12/26 01:34:31;;;;;;;17.23;10.57;;;;;;;1.75;89.98;99071.81;5093595;28;20398;-48
2023/12/26 01:36:56;;;;;;;19.60;9.98;;;;;;;1.70;90.41;99071.41;5093183;28;20028;-48
2023/12/26 01:39:22;;;;;;;14.32;9.75;;;;;;;1.88;91.75;99067.19;5093250;28;20016;-48
2023/12/26 01:41:48;;;;;;;16.65;11.25;;;;;;;2.33;92.16;99073.59;5091780;28;20031;-48
2023/12/26 01:44:14;;;;;;;15.85;10.13;;;;;;;2.69;91.56;99060.84;5091788;28;20548;-48
2023/12/26 01:46:40;;;;;;;17.13;9.23;;;;;;;3.00;90.67;99061.44;5093315;28;20059;-48
2023/12/26 01:49:05;;;;;;;11.65;8.48;;;;;;;3.10;89.67;99071.75;5093050;28;20099;-48
2023/12/26 01:51:31;;;;;;;12.98;9.73;;;;;;;2.92;88.50;99075.13;5092947;28;20486;-48
2023/12/26 01:53:59;;;;;;;14.25;9.77;;;;;;;2.68;87.62;99079.97;5091634;28;20397;-48
2023/12/26 01:56:26;;;;;;;13.60;10.45;;;;;;;2.53;87.56;99075.19;5092951;28;20513;-48
2023/12/26 01:58:53;;;;;;;16.30;11.18;;;;;;;2.42;87.26;99080.53;5091536;28;20028;-48
2023/12/26 02:01:19;;;;;;;17.55;11.20;;;;;;;2.18;87.27;99094.72;5091396;28;20383;-48
2023/12/26 02:03:45;;;;;;;17.30;10.95;;;;;;;1.96;88.09;99092.41;5092769;28;20032;-48
2023/12/26 02:06:13;;;;;;;14.25;10.82;;;;;;;1.78;88.72;99093.06;5092284;28;20020;-48
2023/12/26 02:08:40;;;;;;;16.67;11.95;;;;;;;1.71;88.78;99096.31;5091293;28;20405;-48
2023/12/26 02:11:06;;;;;;;16.27;10.57;;;;;;;1.74;90.15;99096.06;5092601;28;20032;-47
2023/12/26 02:13:35;;;;;;;16.63;10.75;;;;;;;1.92;91.08;99101.41;5091285;28;20020;-48
2023/12/26 02:16:11;;;;;;;17.85;9.90;;;;;;;2.39;92.25;99094.59;5091249;28;20103;-48
2023/12/26 02:18:38;;;;;;;15.93;9.88;;;;;;;2.88;92.00;99093.66;5091237;28;20035;-48
2023/12/26 02:21:04;;;;;;;15.38;11.18;;;;;;;3.17;90.64;99091.78;5092346;28;20028;-48
2023/12/26 02:23:31;;;;;;;20.02;15.32;;;;;;;3.22;90.43;99090.53;5090874;28;20032;-48
2023/12/26 02:25:58;;;;;;;16.92;11.40;;;;;;;3.07;89.60;99087.63;5092373;28;20443;-48
2023/12/26 02:28:25;;;;;;;46.80;39.92;;;;;;;2.89;90.09;99085.75;5092347;28;20099;-48
2023/12/26 02:30:52;;;;;;;16.52;13.18;;;;;;;3.16;93.12;99084.19;5092267;28;20020;-48
2023/12/26 02:33:17;;;;;;;28.70;24.27;;;;;;;3.33;93.40;99078.22;5092264;28;20048;-48
2023/12/26 02:35:44;;;;;;;16.48;12.02;;;;;;;3.31;94.19;99087.91;5092239;28;20051;-48
2023/12/26 02:38:10;;;;;;;15.10;12.02;;;;;;;3.06;94.02;99080.78;5092210;28;20066;-48
2023/12/26 02:40:36;;;;;;;14.48;12.02;;;;;;;2.60;93.35;99084.06;5092122;28;20237;-48
2023/12/26 02:43:01;;;;;;;14.43;12.55;;;;;;;2.18;93.79;99091.31;5090848;28;20516;-48
2023/12/26 02:45:27;;;;;;;15.13;11.60;;;;;;;1.90;94.40;99098.13;5092118;28;20065;-48
2023/12/26 02:47:53;;;;;;;17.60;12.45;;;;;;;1.64;95.24;99095.22;5092338;28;20520;-48
2023/12/26 02:50:18;;;;;;;17.35;13.05;;;;;;;1.44;96.16;99097.75;5092026;28;20024;-48
2023/12/26 02:52:44;;;;;;;17.10;12.88;;;;;;;1.34;96.81;99094.31;5092064;28;20016;-48
2023/12/26 02:55:11;;;;;;;15.73;12.52;;;;;;;1.29;97.82;99093.88;5090755;28;20047;-48
2023/12/26 02:57:36;;;;;;;20.45;12.52;;;;;;;1.21;98.31;99099.72;5091955;28;20500;-48
2023/12/26 03:00:05;;;;;;;15.88;10.77;;;;;;;1.15;99.83;99098.47;5090528;28;20059;-48
2023/12/26 03:02:31;;;;;;;16.75;11.88;;;;;;;1.50;100.00;99093.81;5091928;28;20047;-48
2023/12/26 03:04:57;;;;;;;17.48;11.20;;;;;;;1.90;100.00;99091.16;5091922;28;20486;-47
2023/12/26 03:07:22;;;;;;;17.10;11.80;;;;;;;2.11;100.00;99093.66;5091802;28;20035;-46
2023/12/26 03:09:48;;;;;;;16.23;12.00;;;;;;;2.13;100.00;99086.56;5090486;28;20555;-47
2023/12/26 03:12:14;;;;;;;100.15;74.68;;;;;;;2.24;100.00;99087.38;5090456;28;20032;-47
2023/12/26 03:14:39;;;;;;;39.92;30.00;;;;;;;2.32;100.00;99077.97;5091785;28;20020;-47
2023/12/26 03:17:05;;;;;;;33.17;24.50;;;;;;;2.34;100.00;99085.59;5090396;28;20112;-47
2023/12/26 03:19:31;;;;;;;19.05;12.32;;;;;;;2.30;100.00;99079.06;5095228;28;20020;-47
2023/12/26 03:21:56;;;;;;;19.38;11.55;;;;;;;2.25;100.00;99076.84;5095727;28;20028;-47
2023/12/26 03:24:22;;;;;;;15.82;12.45;;;;;;;2.04;100.00;99079.59;5095672;28;20052;-48
2023/12/26 03:26:48;;;;;;;17.75;13.15;;;;;;;1.65;100.00;99078.72;5094490;28;20111;-47
2023/12/26 03:29:13;;;;;;;17.50;13.15;;;;;;;1.37;100.00;99070.78;5095774;28;20444;-47
2023/12/26 03:31:45;;;;;;;18.42;13.45;;;;;;;1.35;100.00;99075.28;5095596;28;20024;-47
2023/12/26 03:34:12;;;;;;;18.35;13.70;;;;;;;1.27;100.00;99072.50;5095668;28;20030;-47
2023/12/26 03:36:45;;;;;;;18.30;13.07;;;;;;;1.10;100.00;99086.88;5094215;28;20063;-47
2023/12/26 03:39:11;;;;;;;18.05;12.50;;;;;;;0.97;100.00;99081.94;5094293;28;20024;-47
2023/12/26 03:41:37;;;;;;;17.70;11.52;;;;;;;1.36;100.00;99076.91;5095374;28;20028;-47
2023/12/26 03:44:03;;;;;;;14.68;11.57;;;;;;;2.35;100.00;99090.63;5094162;28;20031;-47
2023/12/26 03:46:28;;;;;;;25.38;21.23;;;;;;;3.20;100.00;99083.75;5094118;28;20081;-47
2023/12/26 03:48:54;;;;;;;15.98;9.35;;;;;;;3.84;100.00;99086.38;5095301;28;20494;-47
2023/12/26 03:51:19;;;;;;;13.00;9.02;;;;;;;4.32;100.00;99087.78;5095284;28;20116;-48
2023/12/26 03:53:45;;;;;;;12.18;9.18;;;;;;;4.63;100.00;99083.94;5095308;28;20131;-48
2023/12/26 03:56:12;;;;;;;16.10;9.55;;;;;;;4.71;100.00;99082.25;5095207;28;20393;-47
2023/12/26 03:58:37;;;;;;;20.80;12.88;;;;;;;4.38;100.00;99094.16;5093876;28;20036;-48
2023/12/26 04:01:03;;;;;;;10.60;8.65;;;;;;;4.33;100.00;99091.22;5095046;28;20505;-48
2023/12/26 04:03:29;;;;;;;13.80;8.85;;;;;;;4.41;100.00;99096.47;5095103;28;20385;-48
2023/12/26 04:05:55;;;;;;;10.65;8.27;;;;;;;4.57;100.00;99088.81;5093688;28;20039;-48
2023/12/26 04:08:21;;;;;;;9.68;8.00;;;;;;;4.76;100.00;99094.78;5093699;28;20107;-48
2023/12/26 04:10:46;;;;;;;12.75;8.35;;;;;;;4.92;100.00;99094.88;5094913;28;20103;-48
2023/12/26 04:13:12;;;;;;;11.65;8.45;;;;;;;4.75;99.26;99091.38;5094926;28;20061;-48
2023/12/26 04:15:38;;;;;;;16.67;8.10;;;;;;;4.50;97.62;99103.34;5094831;28;20047;-48
2023/12/26 04:18:04;;;;;;;12.23;7.47;;;;;;;4.39;98.10;99111.41;5093610;28;20030;-48
2023/12/26 04:20:30;;;;;;;8.57;7.75;;;;;;;4.12;97.27;99109.69;5094684;28;20394;-47
2023/12/26 04:22:55;;;;;;;11.77;9.10;;;;;;;3.73;97.02;99110.78;5093364;28;20032;-48
2023/12/26 04:25:22;;;;;;;11.27;9.13;;;;;;;3.39;98.51;99110.56;5093196;28;20116;-48
2023/12/26 04:27:48;;;;;;;11.25;8.27;;;;;;;3.13;98.36;99115.56;5094560;28;20020;-48
2023/12/26 04:30:15;;;;;;;13.85;9.95;;;;;;;2.88;98.95;99115.25;5092866;28;20117;-48
2023/12/26 04:32:40;;;;;;;11.30;9.32;;;;;;;2.64;99.42;99117.47;5094493;28;20464;-47
2023/12/26 04:35:07;;;;;;;11.00;9.30;;;;;;;2.40;99.66;99116.13;5094495;28;20104;-48
2023/12/26 04:37:32;;;;;;;12.07;9.57;;;;;;;2.09;98.92;99108.47;5093145;28;20052;-48
2023/12/26 04:39:58;;;;;;;12.55;10.73;;;;;;;1.90;99.56;99121.41;5092950;28;20063;-47
2023/12/26 04:42:23;;;;;;;11.63;9.27;;;;;;;1.91;100.00;99123.03;5094394;28;20202;-47
2023/12/26 04:44:49;;;;;;;13.57;10.23;;;;;;;1.86;100.00;99114.88;5094287;28;20102;-48
2023/12/26 04:47:15;;;;;;;15.23;10.50;;;;;;;1.73;100.00;99118.53;5094223;28;20443;-48
2023/12/26 04:49:40;;;;;;;17.88;13.27;;;;;;;1.57;99.56;99118.19;5092829;28;20028;-48
2023/12/26 04:52:06;;;;;;;17.35;12.73;;;;;;;1.46;100.00;99113.94;5094128;28;20027;-47
2023/12/26 04:54:32;;;;;;;15.15;9.90;;;;;;;1.82;100.00;99116.91;5094141;28;20026;-47
2023/12/26 04:56:57;;;;;;;11.50;7.70;;;;;;;2.32;100.00;99123.75;5094048;28;20044;-47
2023/12/26 04:59:23;;;;;;;14.27;8.52;;;;;;;2.44;100.00;99122.66;5093969;28;20024;-48
2023/12/26 05:01:49;;;;;;;14.35;9.98;;;;;;;2.47;100.00;99117.19;5092563;28;20020;-48
2023/12/26 05:04:15;;;;;;;12.95;9.80;;;;;;;2.55;100.00;99117.31;5093934;28;20069;-48
2023/12/26 05:06:41;;;;;;;13.57;9.38;;;;;;;2.42;100.00;99118.59;5094066;28;20096;-48
2023/12/26 05:09:06;;;;;;;13.23;9.82;;;;;;;2.22;100.00;99122.94;5093910;28;20490;-48
2023/12/26 05:11:32;;;;;;;14.90;10.27;;;;;;;1.99;100.00;99118.00;5093723;28;20020;-47
2023/12/26 05:13:58;;;;;;;14.82;11.35;;;;;;;1.73;100.00;99123.72;5093741;28;20415;-48
2023/12/26 05:16:23;;;;;;;48.30;33.17;;;;;;;1.68;100.00;99125.84;5093604;28;20028;-47
2023/12/26 05:18:49;;;;;;;25.15;16.35;;;;;;;2.35;100.00;99128.66;5092244;28;20028;-48
2023/12/26 05:21:22;;;;;;;16.25;12.65;;;;;;;2.70;100.00;99132.47;5093543;28;20028;-48
2023/12/26 05:23:48;;;;;;;20.70;13.25;;;;;;;3.11;100.00;99130.44;5093314;28;20076;-48
2023/12/26 05:26:14;;;;;;;20.17;12.32;;;;;;;3.29;100.00;99141.72;5092196;28;20123;-48
2023/12/26 05:28:40;;;;;;;24.33;11.63;;;;;;;3.41;100.00;99142.34;5092155;28;20024;-48
2023/12/26 05:31:06;;;;;;;18.98;9.85;;;;;;;3.63;100.00;99140.34;5092061;28;20036;-47
2023/12/26 05:33:32;;;;;;;29.90;11.95;;;;;;;3.79;100.00;99150.91;5093322;28;20078;-48
2023/12/26 05:35:59;;;;;;;16.50;10.00;;;;;;;3.65;99.38;99154.00;5092003;28;20382;-48
2023/12/26 05:38:25;;;;;;;14.00;10.63;;;;;;;3.53;98.49;99161.97;5093282;28;20498;-48
2023/12/26 05:40:50;;;;;;;12.98;9.98;;;;;;;3.60;98.77;99168.22;5092321;28;20105;-48
2023/12/26 05:43:16;;;;;;;14.65;9.57;;;;;;;3.31;96.29;99160.53;5091876;28;20086;-48
2023/12/26 05:45:42;;;;;;;13.70;8.77;;;;;;;3.10;96.81;99162.50;5093100;28;20031;-48
2023/12/26 05:48:08;;;;;;;14.15;9.27;;;;;;;3.34;98.18;99173.25;5093055;28;20070;-48
2023/12/26 05:50:33;;;;;;;17.13;8.52;;;;;;;3.31;97.45;99173.50;5093016;28;20444;-48
2023/12/26 05:53:01;;;;;;;22.27;15.73;;;;;;;3.32;97.46;99172.56;5092998;28;20028;-48
2023/12/26 05:55:26;;;;;;;16.35;10.00;;;;;;;3.47;97.50;99175.50;5092960;28;20461;-48
2023/12/26 05:57:52;;;;;;;14.43;10.70;;;;;;;3.35;95.25;99184.44;5092938;28;20063;-47
2023/12/26 06:00:18;;;;;;;19.83;11.68;;;;;;;2.77;93.81;99195.72;5091397;28;20093;-48
2023/12/26 06:02:43;;;;;;;16.85;10.82;;;;;;;2.22;93.83;99200.63;5074823;28;20047;-48
2023/12/26 06:05:09;;;;;;;13.32;9.40;;;;;;;2.23;96.58;99208.25;5092724;28;20482;-47
2023/12/26 06:07:35;;;;;;;25.38;10.27;;;;;;;2.24;95.60;99214.25;5091359;28;20031;-48
2023/12/26 06:10:01;;;;;;;31.58;13.65;;;;;;;2.27;96.63;99224.34;5091309;28;20512;-48
2023/12/26 06:12:28;;;;;;;30.85;16.25;;;;;;;2.63;97.84;99219.47;5091300;28;20114;-48
2023/12/26 06:14:54;;;;;;;15.18;9.93;;;;;;;2.86;96.78;99222.59;5092464;28;20584;-48
2023/12/26 06:17:21;;;;;;;18.55;12.00;;;;;;;2.62;94.88;99229.03;5091218;28;20115;-48
2023/12/26 06:19:50;;;;;;;22.08;10.68;;;;;;;2.33;94.20;99236.75;5091169;28;20119;-47
2023/12/26 06:22:16;;;;;;;19.20;12.50;;;;;;;2.00;93.84;99236.94;5092441;28;20111;-48
2023/12/26 06:24:42;;;;;;;14.60;10.38;;;;;;;1.63;93.02;99239.28;5090870;28;20484;-48
2023/12/26 06:27:07;;;;;;;17.50;11.43;;;;;;;1.38;93.80;99248.25;5092311;28;20566;-47
2023/12/26 06:29:33;;;;;;;18.83;10.68;;;;;;;1.25;94.82;99251.06;5092275;28;20016;-48
2023/12/26 06:31:59;;;;;;;13.75;11.60;;;;;;;1.17;95.22;99250.88;5092269;28;20028;-47
2023/12/26 06:34:24;;;;;;;24.50;13.13;;;;;;;1.06;95.59;99251.72;5092341;28;20035;-47
2023/12/26 06:36:50;;;;;;;31.85;16.35;;;;;;;0.95;95.66;99252.63;5092137;28;20032;-48
2023/12/26 06:39:16;;;;;;;14.68;10.82;;;;;;;0.84;95.79;99252.66;5090856;28;20058;-48
2023/12/26 06:41:43;;;;;;;13.93;10.57;;;;;;;0.79;96.23;99254.81;5090759;28;20119;-48
2023/12/26 06:44:10;;;;;;;17.83;11.07;;;;;;;0.84;96.94;99252.66;5092137;28;20027;-48
2023/12/26 06:46:42;;;;;;;16.58;10.55;;;;;;;1.03;98.41;99251.16;5092070;28;20024;-48
2023/12/26 06:49:09;;;;;;;11.18;9.20;;;;;;;1.16;97.96;99259.56;5092084;28;20114;-48
2023/12/26 06:51:39;;;;;;;12.32;9.57;;;;;;;1.07;96.63;99249.97;5090560;28;20032;-47
2023/12/26 06:54:05;;;;;;;18.63;13.13;;;;;;;0.89;95.12;99247.94;5090765;28;20019;-48
2023/12/26 06:56:30;;;;;;;17.45;11.60;;;;;;;0.73;94.66;99252.72;5090591;28;20409;-48
2023/12/26 06:58:57;;;;;;;17.85;11.48;;;;;;;0.57;95.25;99246.19;5092163;28;20389;-48
2023/12/26 07:01:23;;;;;;;23.60;12.02;;;;;;;0.48;95.38;99254.66;5091726;28;20016;-46
2023/12/26 07:03:49;;;;;;;47.97;37.60;;;;;;;0.54;97.68;99254.19;5090585;28;20405;-46
2023/12/26 07:06:14;;;;;;;29.08;22.92;;;;;;;0.94;100.00;99253.53;5074032;28;20498;-46
2023/12/26 07:08:40;;;;;;;20.58;15.25;;;;;;;1.25;100.00;99251.06;5091797;28;20103;-46
2023/12/26 07:11:06;;;;;;;21.20;13.38;;;;;;;1.57;100.00;99255.28;5091819;28;20179;-46
2023/12/26 07:13:31;;;;;;;20.10;13.88;;;;;;;1.99;100.00;99262.97;5090434;28;20116;-46
2023/12/26 07:15:57;;;;;;;20.55;12.40;;;;;;;2.54;100.00;99265.97;5091774;28;20386;-46
2023/12/26 07:18:23;;;;;;;19.42;12.77;;;;;;;3.04;100.00;99265.03;5090637;28;20069;-47
2023/12/26 07:20:49;;;;;;;20.02;14.77;;;;;;;3.34;100.00;99265.81;5091656;28;20016;-48
2023/12/26 07:23:14;;;;;;;18.52;12.73;;;;;;;3.32;97.91;99265.97;5090221;28;20020;-48
2023/12/26 07:25:43;;;;;;;21.08;13.55;;;;;;;3.07;94.63;99275.13;5091686;28;20069;-48
2023/12/26 07:28:10;;;;;;;23.83;15.60;;;;;;;2.85;93.98;99271.03;5091635;28;20503;-48
2023/12/26 07:30:39;;;;;;;17.52;11.55;;;;;;;2.91;95.03;99285.22;5091567;28;20098;-48
2023/12/26 07:33:05;;;;;;;16.95;10.88;;;;;;;2.91;94.29;99275.66;5091671;28;20035;-48
2023/12/26 07:35:31;;;;;;;19.63;11.10;;;;;;;3.07;95.22;99271.72;5091587;28;20028;-48
2023/12/26 07:37:56;;;;;;;40.15;32.65;;;;;;;3.86;95.45;99267.97;5091841;28;20040;-48
2023/12/26 07:40:22;;;;;;;16.50;12.32;;;;;;;4.74;91.52;99265.72;5090156;28;20035;-48
2023/12/26 07:42:48;;;;;;;24.52;18.75;;;;;;;5.23;87.78;99265.28;5090290;28;20123;-48
2023/12/26 07:45:13;;;;;;;26.92;16.10;;;;;;;5.86;86.78;99269.44;5091570;28;20023;-48
2023/12/26 07:47:39;;;;;;;20.63;12.10;;;;;;;6.35;84.68;99274.88;5090210;28;20486;-49
2023/12/26 07:50:05;;;;;;;19.58;11.15;;;;;;;6.75;82.63;99278.56;5091528;28;20039;-49
2023/12/26 07:52:31;;;;;;;19.60;13.73;;;;;;;6.88;80.05;99278.06;5091455;28;20081;-48
2023/12/26 07:54:57;;;;;;;15.35;12.07;;;;;;;6.81;79.41;99283.13;5091407;28;20032;-49
2023/12/26 07:57:22;;;;;;;20.83;12.43;;;;;;;6.77;78.44;99295.66;5091467;28;20039;-48
2023/12/26 07:59:48;;;;;;;17.67;15.05;;;;;;;6.83;77.38;99301.22;5091404;28;20020;-49
2023/12/26 08:02:14;;;;;;;26.67;14.38;;;;;;;6.72;76.97;99310.16;5091275;28;20024;-48
2023/12/26 08:04:39;;;;;;;18.42;12.50;;;;;;;6.56;75.62;99310.94;5091804;28;20056;-49
2023/12/26 08:07:07;;;;;;;17.08;11.30;;;;;;;6.35;76.46;99306.16;5094902;28;20141;-49
2023/12/26 08:09:34;;;;;;;21.17;13.30;;;;;;;6.34;76.17;99315.78;5095202;28;20032;-48
2023/12/26 08:12:00;;;;;;;22.65;11.60;;;;;;;6.22;75.37;99308.38;5093639;28;20410;-48
2023/12/26 08:14:25;;;;;;;21.25;13.88;;;;;;;5.93;75.44;99315.53;5094829;28;20020;-49
2023/12/26 08:16:51;;;;;;;16.60;12.55;;;;;;;5.82;75.74;99325.44;5094822;28;20115;-48
2023/12/26 08:19:17;;;;;;;19.75;13.45;;;;;;;5.89;76.11;99332.44;5094865;28;20024;-48
2023/12/26 08:21:42;;;;;;;23.05;14.60;;;;;;;6.10;75.32;99342.53;5093356;28;20402;-49
2023/12/26 08:24:09;;;;;;;15.50;11.73;;;;;;;6.59;73.94;99340.13;5094508;28;20063;-49
2023/12/26 08:26:35;;;;;;;24.20;16.83;;;;;;;7.63;73.13;99350.22;5093378;28;20024;-49
2023/12/26 08:29:00;;;;;;;23.08;12.73;;;;;;;8.52;69.89;99350.97;5094701;28;20023;-48
2023/12/26 08:31:26;;;;;;;21.88;12.60;;;;;;;9.24;68.27;99344.66;5094513;28;20024;-49
2023/12/26 08:33:52;;;;;;;14.77;12.07;;;;;;;9.71;65.05;99348.84;5094769;28;20024;-49
2023/12/26 08:36:18;;;;;;;19.95;10.82;;;;;;;10.02;64.21;99350.50;5093285;28;20420;-49
2023/12/26 08:38:44;;;;;;;18.58;11.38;;;;;;;10.43;63.23;99360.59;5093147;28;20111;-48
2023/12/26 08:41:12;;;;;;;21.38;11.13;;;;;;;10.76;61.31;99363.59;5094579;28;20024;-49
2023/12/26 08:43:38;;;;;;;30.77;18.25;;;;;;;11.17;59.59;99370.91;5094262;28;20024;-49
2023/12/26 08:46:04;;;;;;;16.73;10.75;;;;;;;11.45;58.00;99368.34;5092972;28;20027;-49
2023/12/26 08:48:29;;;;;;;18.63;13.57;;;;;;;11.64;57.67;99366.88;5092951;28;20052;-49
2023/12/26 08:50:55;;;;;;;14.98;11.30;;;;;;;11.85;57.47;99371.31;5094193;28;20074;-49
2023/12/26 08:53:21;;;;;;;15.88;12.75;;;;;;;11.78;55.37;99373.88;5094170;28;20106;-49
2023/12/26 08:55:47;;;;;;;19.05;14.32;;;;;;;11.87;55.39;99368.47;5092769;28;20035;-49
2023/12/26 08:58:14;;;;;;;15.75;13.82;;;;;;;11.99;54.18;99362.53;5092798;28;20020;-49
2023/12/26 09:00:40;;;;;;;32.90;29.40;;;;;;;12.15;53.92;99371.94;5092562;28;20028;-49
2023/12/26 09:03:07;;;;;;;14.90;13.20;;;;;;;12.33;53.73;99381.13;5092694;28;20040;-49
2023/12/26 09:05:33;;;;;;;14.30;11.40;;;;;;;12.78;51.84;99389.44;5093800;28;20062;-49
2023/12/26 09:07:59;;;;;;;17.17;12.15;;;;;;;13.16;51.14;99376.56;5109674;28;20027;-49
2023/12/26 09:10:25;;;;;;;15.80;12.85;;;;;;;13.46;50.01;99375.41;5093821;28;20036;-49
2023/12/26 09:12:51;;;;;;;18.42;14.65;;;;;;;13.60;50.26;99377.03;5092501;28;20047;-49
2023/12/26 09:15:17;;;;;;;20.38;14.68;;;;;;;13.93;49.30;99378.88;5093032;28;20028;-49
2023/12/26 09:17:43;;;;;;;14.88;13.18;;;;;;;14.21;47.44;99383.91;5092157;28;20027;-49
2023/12/26 09:20:10;;;;;;;16.00;14.30;;;;;;;14.49;47.09;99391.53;5092229;28;20028;-49
2023/12/26 09:22:36;;;;;;;21.88;14.65;;;;;;;14.89;47.24;99390.56;5093811;28;20028;-49
2023/12/26 09:25:02;;;;;;;20.35;12.85;;;;;;;15.28;45.89;99396.69;5093312;28;20048;-49
2023/12/26 09:27:28;;;;;;;18.23;12.57;;;;;;;15.67;43.46;99405.34;5093491;28;20028;-49
2023/12/26 09:29:54;;;;;;;35.97;20.02;;;;;;;15.62;42.94;99406.00;5092144;28;20024;-47
2023/12/26 09:32:20;;;;;;;37.40;24.67;;;;;;;15.63;42.72;99396.22;5092110;28;20394;-47
2023/12/26 09:34:45;;;;;;;21.00;18.70;;;;;;;15.81;42.29;99391.00;5093356;28;20028;-47
2023/12/26 09:37:11;;;;;;;25.67;20.85;;;;;;;16.32;41.82;99392.56;5092248;28;20031;-47
2023/12/26 09:39:37;;;;;;;19.63;16.15;;;;;;;16.77;40.98;99384.28;5091955;28;20548;-47
2023/12/26 09:42:04;;;;;;;22.95;19.48;;;;;;;16.99;39.94;99367.94;5091820;28;20474;-47
2023/12/26 09:44:30;;;;;;;23.90;17.20;;;;;;;17.33;38.91;99374.38;5093103;28;20024;-47
2023/12/26 09:46:58;;;;;;;21.27;15.40;;;;;;;17.87;38.95;99374.34;5093148;28;20024;-47
2023/12/26 09:49:23;;;;;;;24.98;15.48;;;;;;;18.16;37.87;99371.78;5091808;28;20406;-47
2023/12/26 09:51:54;;;;;;;17.55;14.23;;;;;;;18.30;39.14;99383.78;5092955;28;20028;-47
2023/12/26 09:54:23;;;;;;;19.40;14.40;;;;;;;18.50;38.58;99382.59;5093097;28;20039;-47
2023/12/26 09:56:49;;;;;;;20.65;13.60;;;;;;;18.63;37.47;99376.19;5092905;28;20020;-47
2023/12/26 09:59:16;;;;;;;20.27;17.58;;;;;;;18.11;36.42;99377.81;5091806;28;20031;-47
2023/12/26 10:01:45;;;;;;;19.10;14.43;;;;;;;17.52;38.10;99379.59;5092798;28;20485;-47
2023/12/26 10:04:11;;;;;;;22.52;19.35;;;;;;;17.12;39.10;99372.22;5092852;28;20016;-47
2023/12/26 10:06:36;;;;;;;17.80;13.27;;;;;;;16.71;38.55;99357.88;5091439;28;20032;-47
2023/12/26 10:09:02;;;;;;;17.33;13.23;;;;;;;16.11;38.85;99350.63;5091345;28;20027;-47
2023/12/26 10:11:28;;;;;;;15.10;13.02;;;;;;;15.07;39.33;99347.56;5091302;28;20110;-47
2023/12/26 10:13:55;;;;;;;18.25;13.52;;;;;;;14.19;40.49;99357.69;5092584;28;20020;-47
2023/12/26 10:16:21;;;;;;;35.70;26.88;;;;;;;13.37;42.64;99362.44;5092806;28;20028;-47
2023/12/26 10:18:47;;;;;;;33.92;18.73;;;;;;;12.96;44.98;99346.75;5092542;28;20031;-47
2023/12/26 10:21:13;;;;;;;19.58;13.93;;;;;;;12.57;45.92;99337.69;5092481;28;20517;-47
2023/12/26 10:23:39;;;;;;;16.15;12.73;;;;;;;12.01;46.84;99328.09;5091147;28;20098;-48
2023/12/26 10:26:05;;;;;;;18.73;12.68;;;;;;;11.43;47.53;99320.41;5074601;28;20058;-49
2023/12/26 10:28:38;;;;;;;17.58;13.60;;;;;;;10.90;49.55;99322.53;5092038;28;20024;-49
2023/12/26 10:31:14;;;;;;;17.30;14.07;;;;;;;10.54;50.81;99336.47;5092322;28;20035;-49
2023/12/26 10:33:41;;;;;;;18.05;13.38;;;;;;;10.45;52.04;99334.97;5091004;28;20020;-49
2023/12/26 10:36:10;;;;;;;18.80;12.55;;;;;;;10.53;52.88;99332.25;5092171;28;20059;-48
2023/12/26 10:38:37;;;;;;;17.58;13.85;;;;;;;11.08;53.23;99338.69;5090912;28;20028;-49
2023/12/26 10:41:08;;;;;;;16.88;12.57;;;;;;;11.26;52.13;99330.38;5090866;28;20024;-49
2023/12/26 10:43:40;;;;;;;16.10;12.18;;;;;;;11.49;52.99;99340.69;5092130;28;20401;-49
2023/12/26 10:46:08;;;;;;;21.70;12.60;;;;;;;11.72;52.71;99356.22;5092201;28;20031;-49
2023/12/26 10:48:35;;;;;;;23.67;13.90;;;;;;;11.67;52.72;99365.69;5092040;28;20057;-49
2023/12/26 10:51:01;;;;;;;21.65;13.32;;;;;;;11.74;52.75;99363.91;5092038;28;20451;-49
2023/12/26 10:54:03;;;;;;;23.00;14.18;;;;;;;11.66;53.41;99349.09;5090844;28;20039;-49
2023/12/26 10:56:31;;;;;;;18.38;15.38;;;;;;;11.68;54.16;99343.66;5081392;28;20089;-49
2023/12/26 10:58:58;;;;;;;36.17;25.50;;;;;;;11.87;53.99;99345.63;5091970;28;20056;-49
2023/12/26 13:51:43;;;;;;;12.63;8.40;;;;;;;16.17;42.98;99263.16;5093375;28;20469;-47
2023/12/26 13:54:46;;;;;;;15.20;7.88;;;;;;;16.09;43.28;99275.88;5093060;28;20564;-47
2023/12/26 13:57:49;;;;;;;18.73;6.88;;;;;;;16.11;43.05;99284.41;5091604;28;20489;-47
2023/12/26 14:00:51;;;;;;;11.63;7.45;;;;;;;16.09;43.55;99268.75;5092857;28;20016;-47
2023/12/26 14:03:55;;;;;;;13.85;6.00;;;;;;;16.10;42.79;99248.41;5092148;28;20028;-47
2023/12/26 14:06:59;;;;;;;12.43;6.82;;;;;;;15.70;43.54;99227.63;5092665;28;20042;-47
2023/12/26 14:10:03;;;;;;;10.00;5.40;;;;;;;15.50;43.48;99247.16;5092695;28;20073;-47
2023/12/26 14:13:06;;;;;;;14.05;5.78;;;;;;;14.89;43.91;99242.59;5092913;28;20379;-47
2023/12/26 14:16:09;;;;;;;10.82;5.25;;;;;;;14.54;45.51;99249.06;5092580;28;20081;-47